Time;durP1;ratioP1;P1;durP2;ratioP2;P2;SDS_P1;SDS_P2;PMS_P1;PMS_P2;Temp;Humidity;BMP_temperature;BMP_pressure;BME280_temperature;BME280_humidity;BME280_pressure;Samples;Min_cycle;Max_cycle;Signal;HPM_P1;HPM_P2
2020/12/23 00:00:27;;;;;;;13.55;1.67;;;7.00;99.90;;;;;;8219793;28;20322;-74
2020/12/23 00:04:40;;;;;;;15.60;2.33;;;6.90;99.90;;;;;;8233968;28;20057;-73
2020/12/23 00:08:42;;;;;;;18.07;2.50;;;7.50;99.90;;;;;;8215209;28;20061;-72
2020/12/23 00:12:43;;;;;;;6.67;1.33;;;6.70;99.90;;;;;;8233390;28;20062;-73
2020/12/23 00:16:47;;;;;;;7.47;1.53;;;7.00;99.90;;;;;;8228552;28;20046;-73
2020/12/23 00:20:48;;;;;;;10.20;1.85;;;6.80;99.90;;;;;;8225772;28;21036;-72
2020/12/23 00:24:50;;;;;;;9.80;1.55;;;7.10;99.90;;;;;;8233424;28;20534;-72
2020/12/23 00:28:51;;;;;;;10.73;1.43;;;7.00;99.90;;;;;;8238768;28;20072;-72
2020/12/23 00:32:53;;;;;;;11.97;1.53;;;7.20;99.90;;;;;;8245374;28;20582;-73
2020/12/23 00:36:56;;;;;;;15.17;1.67;;;6.70;99.90;;;;;;8234488;28;20466;-73
2020/12/23 00:40:57;;;;;;;12.88;1.50;;;7.10;99.90;;;;;;8219843;28;20062;-73
2020/12/23 00:44:59;;;;;;;12.10;1.23;;;6.70;99.90;;;;;;8236205;28;20070;-72
2020/12/23 00:49:00;;;;;;;8.47;1.53;;;7.00;99.90;;;;;;8218794;28;20493;-73
2020/12/23 00:53:02;;;;;;;17.38;1.92;;;7.70;99.90;;;;;;8235858;28;20074;-73
2020/12/23 00:57:03;;;;;;;13.37;1.60;;;7.20;99.90;;;;;;8238718;28;20535;-74
2020/12/23 01:01:07;;;;;;;21.75;2.22;;;7.90;99.90;;;;;;8227529;28;20733;-74
2020/12/23 01:05:19;;;;;;;18.67;2.40;;;7.40;99.90;;;;;;8221951;28;20050;-74
2020/12/23 01:09:21;;;;;;;12.10;2.30;;;7.00;99.90;;;;;;8234881;28;20443;-73
2020/12/23 01:13:22;;;;;;;18.02;1.70;;;7.00;99.90;;;;;;8241751;28;20085;-73
2020/12/23 01:17:23;;;;;;;13.37;2.17;;;7.70;99.90;;;;;;8224374;28;20420;-73
2020/12/23 01:21:25;;;;;;;11.40;2.00;;;7.00;99.90;;;;;;8241248;28;20050;-73
2020/12/23 01:25:26;;;;;;;14.63;1.60;;;7.00;99.90;;;;;;8242199;28;20050;-73
2020/12/23 01:29:28;;;;;;;16.87;2.50;;;7.00;99.90;;;;;;8213940;28;20057;-74
2020/12/23 01:33:29;;;;;;;10.27;1.63;;;7.20;99.90;;;;;;8227901;28;20400;-73
2020/12/23 01:37:30;;;;;;;10.77;1.50;;;6.80;99.90;;;;;;8240605;28;20179;-72
2020/12/23 01:41:32;;;;;;;12.63;2.07;;;6.90;99.90;;;;;;8223657;28;20063;-73
2020/12/23 01:45:34;;;;;;;8.60;1.53;;;7.10;99.90;;;;;;8264809;28;20062;-73
2020/12/23 01:49:35;;;;;;;14.38;2.08;;;7.10;99.90;;;;;;8255720;28;20054;-73
2020/12/23 01:53:37;;;;;;;11.73;1.33;;;6.90;99.90;;;;;;8239574;28;20042;-73
2020/12/23 01:57:39;;;;;;;19.73;1.52;;;7.10;99.90;;;;;;8239016;28;20233;-73
2020/12/23 02:01:47;;;;;;;8.83;1.17;;;7.00;99.90;;;;;;8249444;28;20512;-73
2020/12/23 02:05:56;;;;;;;9.10;1.40;;;6.90;99.90;;;;;;8257934;28;20061;-73
2020/12/23 02:09:59;;;;;;;9.93;1.20;;;7.20;99.90;;;;;;8239339;28;20424;-73
2020/12/23 02:14:01;;;;;;;7.80;0.90;;;6.90;99.90;;;;;;8241055;28;20063;-73
2020/12/23 02:18:03;;;;;;;9.77;1.40;;;7.20;99.90;;;;;;8237112;28;20404;-74
2020/12/23 02:22:04;;;;;;;11.40;1.30;;;7.00;99.90;;;;;;8231762;28;21020;-73
2020/12/23 02:26:06;;;;;;;11.10;1.75;;;7.30;99.90;;;;;;8239174;28;20401;-73
2020/12/23 02:30:09;;;;;;;8.73;1.33;;;7.20;99.90;;;;;;8220268;28;20066;-74
2020/12/23 02:34:11;;;;;;;6.88;0.95;;;7.00;99.90;;;;;;8237185;28;20063;-75
2020/12/23 02:38:13;;;;;;;9.33;1.10;;;6.90;99.90;;;;;;8224287;28;20039;-74
2020/12/23 02:42:16;;;;;;;8.35;1.05;;;7.00;99.90;;;;;;8228367;28;20066;-74
2020/12/23 02:46:19;;;;;;;12.63;1.70;;;7.30;99.90;;;;;;8221518;28;20042;-75
2020/12/23 02:50:21;;;;;;;7.50;1.00;;;6.90;99.90;;;;;;8216088;28;21139;-74
2020/12/23 02:54:23;;;;;;;9.97;1.13;;;7.10;99.90;;;;;;8238456;28;20120;-76
2020/12/23 02:58:25;;;;;;;8.75;1.35;;;6.90;99.90;;;;;;8228795;28;20419;-75
2020/12/23 03:02:26;;;;;;;7.50;1.17;;;7.10;99.90;;;;;;8237715;28;20137;-75
2020/12/23 03:06:35;;;;;;;10.40;1.15;;;7.10;99.90;;;;;;8240001;28;20101;-75
2020/12/23 03:10:36;;;;;;;9.15;1.27;;;7.00;99.90;;;;;;8236544;28;20062;-74
2020/12/23 03:14:38;;;;;;;8.43;1.35;;;6.90;99.90;;;;;;8237680;28;20414;-74
2020/12/23 03:18:40;;;;;;;9.13;1.33;;;7.00;99.90;;;;;;8242605;28;20117;-74
2020/12/23 03:22:42;;;;;;;7.65;1.42;;;7.40;99.90;;;;;;8221651;28;20476;-75
2020/12/23 03:26:43;;;;;;;17.17;2.33;;;7.00;99.90;;;;;;8217627;28;20051;-76
2020/12/23 03:30:44;;;;;;;7.77;1.00;;;7.10;99.90;;;;;;8237995;28;20069;-74
2020/12/23 03:34:46;;;;;;;8.27;0.97;;;7.30;99.90;;;;;;8228530;28;20058;-74
2020/12/23 03:38:47;;;;;;;13.33;1.23;;;7.10;99.90;;;;;;8220494;28;20397;-75
2020/12/23 03:42:49;;;;;;;10.80;1.27;;;7.10;99.90;;;;;;8251265;28;20058;-74
2020/12/23 03:46:50;;;;;;;8.83;0.87;;;6.80;99.90;;;;;;8253682;28;20507;-75
2020/12/23 03:50:52;;;;;;;6.72;1.05;;;7.10;99.90;;;;;;8244131;28;20046;-75
2020/12/23 03:54:53;;;;;;;12.20;1.47;;;7.00;99.90;;;;;;8220561;28;20050;-73
2020/12/23 03:58:55;;;;;;;6.53;0.93;;;6.90;99.90;;;;;;8237930;28;20490;-73
2020/12/23 04:02:56;;;;;;;10.13;1.33;;;6.60;99.90;;;;;;8204098;28;20058;-73
2020/12/23 04:07:10;;;;;;;15.07;2.00;;;7.40;99.90;;;;;;8237820;28;20069;-73
2020/12/23 04:11:12;;;;;;;9.50;0.90;;;7.00;99.90;;;;;;8246506;28;20069;-76
2020/12/23 04:15:14;;;;;;;6.95;1.60;;;6.60;99.90;;;;;;8219458;28;20464;-76
2020/12/23 04:19:16;;;;;;;8.43;0.88;;;6.60;99.90;;;;;;8218794;28;20055;-78
2020/12/23 04:23:17;;;;;;;13.20;1.33;;;7.40;99.90;;;;;;8215859;28;20652;-77
2020/12/23 04:27:18;;;;;;;10.57;1.47;;;6.90;99.90;;;;;;8228003;28;20054;-76
2020/12/23 04:31:20;;;;;;;10.07;1.07;;;6.50;99.90;;;;;;8252728;28;20511;-76
2020/12/23 04:35:22;;;;;;;13.50;3.33;;;6.90;99.90;;;;;;8234651;28;20054;-75
2020/12/23 04:39:23;;;;;;;9.57;1.20;;;6.90;99.90;;;;;;8236216;28;20054;-76
2020/12/23 04:43:24;;;;;;;13.37;1.87;;;6.70;99.90;;;;;;8218858;28;20084;-76
2020/12/23 04:47:29;;;;;;;6.23;1.30;;;6.90;99.90;;;;;;8226766;28;20058;-76
2020/12/23 04:51:36;;;;;;;9.70;0.98;;;6.70;99.90;;;;;;8236401;28;20042;-75
2020/12/23 04:55:41;;;;;;;10.13;1.40;;;6.50;99.90;;;;;;8234291;28;20058;-75
2020/12/23 04:59:43;;;;;;;10.68;1.10;;;6.70;99.90;;;;;;8233640;28;20109;-75
2020/12/23 05:03:45;;;;;;;8.00;1.20;;;7.00;99.90;;;;;;8211302;28;20094;-78
2020/12/23 05:07:49;;;;;;;10.02;1.35;;;6.50;99.90;;;;;;8243740;28;20441;-75
2020/12/23 05:11:51;;;;;;;10.05;1.85;;;6.60;99.90;;;;;;8216182;28;20054;-74
2020/12/23 05:15:52;;;;;;;10.43;1.10;;;6.80;99.90;;;;;;8233442;28;20058;-74
2020/12/23 05:19:53;;;;;;;7.50;1.23;;;7.30;99.90;;;;;;8221056;28;20507;-76
2020/12/23 05:23:57;;;;;;;8.53;1.20;;;6.70;99.90;;;;;;8224975;28;20205;-76
2020/12/23 05:27:59;;;;;;;4.65;0.90;;;6.80;99.90;;;;;;8220245;28;20090;-75
2020/12/23 05:32:02;;;;;;;7.32;1.15;;;6.40;99.90;;;;;;8222164;28;20078;-76
2020/12/23 05:36:04;;;;;;;7.05;1.27;;;6.60;99.90;;;;;;8219675;28;20046;-74
2020/12/23 05:40:06;;;;;;;11.50;1.13;;;6.50;99.90;;;;;;8234748;28;20058;-73
2020/12/23 05:44:21;;;;;;;8.10;1.30;;;6.50;99.90;;;;;;8242574;28;20054;-73
2020/12/23 05:48:22;;;;;;;9.05;1.40;;;6.20;99.90;;;;;;8225868;28;20425;-74
2020/12/23 05:52:25;;;;;;;;;;;6.80;99.90;;;;;;8224273;28;20082;-73
2020/12/23 05:56:36;;;;;;;7.00;1.90;;;6.20;99.90;;;;;;8225229;28;20049;-75
2020/12/23 06:00:37;;;;;;;8.48;3.33;;;6.50;99.90;;;;;;8260813;28;20054;-76
2020/12/23 06:04:43;;;;;;;11.43;3.55;;;6.00;99.90;;;;;;8227129;28;20717;-76
2020/12/23 06:08:49;;;;;;;8.73;2.80;;;6.30;99.90;;;;;;8241127;28;20058;-75
2020/12/23 06:12:57;;;;;;;11.88;3.15;;;6.30;99.90;;;;;;8224188;28;20058;-77
2020/12/23 06:16:58;;;;;;;11.93;2.30;;;6.30;99.90;;;;;;8227532;28;20085;-75
2020/12/23 06:21:08;;;;;;;7.27;1.43;;;6.80;99.90;;;;;;8229240;28;20069;-73
2020/12/23 06:25:09;;;;;;;8.85;1.45;;;6.40;99.90;;;;;;8245766;28;20534;-76
2020/12/23 06:29:20;;;;;;;13.60;1.80;;;6.30;99.90;;;;;;8240534;28;20074;-76
2020/12/23 06:33:21;;;;;;;10.93;1.52;;;6.20;99.90;;;;;;8224847;28;20138;-76
2020/12/23 06:37:26;;;;;;;8.98;1.35;;;5.90;99.90;;;;;;8234139;28;20054;-76
2020/12/23 06:41:27;;;;;;;8.27;1.55;;;6.30;99.90;;;;;;8239193;28;20060;-77
2020/12/23 06:45:54;;;;;;;9.67;1.30;;;6.40;99.90;;;;;;8224349;28;20621;-77
2020/12/23 06:50:02;;;;;;;10.02;1.73;;;5.90;99.90;;;;;;8240744;28;20081;-75
2020/12/23 06:54:03;;;;;;;13.43;1.55;;;6.00;99.90;;;;;;8220592;28;20042;-75
2020/12/23 06:58:05;;;;;;;8.33;1.17;;;6.40;99.90;;;;;;8247872;28;20724;-75
2020/12/23 07:02:08;;;;;;;13.80;1.58;;;6.20;99.90;;;;;;8238184;28;20084;-75
2020/12/23 07:06:33;;;;;;;10.80;1.70;;;5.90;99.90;;;;;;8229416;28;20559;-76
2020/12/23 07:10:41;;;;;;;10.63;1.00;;;6.60;99.90;;;;;;8210640;28;20616;-75
2020/12/23 07:15:09;;;;;;;4.80;1.20;;;5.90;99.90;;;;;;8232067;28;20058;-75
2020/12/23 07:19:13;;;;;;;12.05;1.80;;;5.80;99.90;;;;;;8238549;28;20141;-75
2020/12/23 07:23:19;;;;;;;11.45;1.30;;;6.10;99.90;;;;;;8228204;28;20548;-76
2020/12/23 07:27:25;;;;;;;9.18;1.60;;;5.90;99.90;;;;;;8234229;28;20053;-76
2020/12/23 07:31:27;;;;;;;7.65;1.65;;;5.80;99.90;;;;;;8219140;28;20074;-75
2020/12/23 07:35:31;;;;;;;6.55;1.83;;;5.90;99.90;;;;;;8240832;28;20054;-75
2020/12/23 07:39:32;;;;;;;15.43;2.22;;;5.70;99.90;;;;;;8246908;28;20141;-75
2020/12/23 07:43:34;;;;;;;13.97;2.67;;;5.70;99.90;;;;;;8233898;28;20050;-75
2020/12/23 07:47:36;;;;;;;11.87;2.20;;;6.30;99.90;;;;;;8219527;28;20125;-75
2020/12/23 07:51:38;;;;;;;13.82;2.45;;;5.90;99.90;;;;;;8218488;28;20608;-76
2020/12/23 07:55:42;;;;;;;9.73;2.97;;;6.10;99.90;;;;;;8230367;28;20105;-75
2020/12/23 07:59:43;;;;;;;10.73;2.00;;;5.90;99.90;;;;;;8224953;28;20108;-75
2020/12/23 08:03:44;;;;;;;14.97;3.10;;;5.60;99.90;;;;;;8249559;28;20050;-75
2020/12/23 08:07:46;;;;;;;13.73;2.57;;;5.70;99.90;;;;;;8234910;28;20085;-75
2020/12/23 08:11:51;;;;;;;17.10;3.40;;;6.10;99.90;;;;;;8234595;28;20104;-76
2020/12/23 08:16:03;;;;;;;13.98;2.92;;;5.80;99.90;;;;;;8224975;28;20054;-75
2020/12/23 08:20:13;;;;;;;12.18;2.30;;;5.70;99.90;;;;;;8219749;28;20696;-75
2020/12/23 08:24:15;;;;;;;13.98;3.33;;;5.50;99.90;;;;;;8230501;28;20125;-75
2020/12/23 08:28:19;;;;;;;10.68;3.55;;;5.80;99.90;;;;;;8233856;28;20069;-75
2020/12/23 08:32:26;;;;;;;11.35;2.65;;;6.10;99.90;;;;;;8211003;28;20683;-76
2020/12/23 08:36:30;;;;;;;14.88;2.72;;;6.30;99.90;;;;;;8243616;28;20057;-75
2020/12/23 08:40:31;;;;;;;13.90;2.80;;;5.90;99.90;;;;;;8217125;28;20679;-76
2020/12/23 08:44:33;;;;;;;9.57;2.97;;;6.40;99.90;;;;;;8237541;28;20541;-75
2020/12/23 08:48:44;;;;;;;14.10;3.03;;;6.10;99.90;;;;;;8217806;28;20057;-75
2020/12/23 08:52:48;;;;;;;11.47;3.20;;;6.00;99.90;;;;;;8216917;28;20058;-75
2020/12/23 08:56:49;;;;;;;13.63;3.65;;;6.20;99.90;;;;;;8247649;28;20050;-75
2020/12/23 09:01:01;;;;;;;18.20;4.00;;;5.90;99.90;;;;;;8215545;28;20050;-76
2020/12/23 09:05:33;;;;;;;29.50;3.90;;;5.70;99.90;;;;;;8231833;28;20058;-76
2020/12/23 09:09:34;;;;;;;22.45;3.90;;;5.90;99.90;;;;;;8228482;28;20050;-75
2020/12/23 09:13:37;;;;;;;30.27;4.07;;;6.00;99.90;;;;;;8251249;28;20593;-75
2020/12/23 09:17:39;;;;;;;18.35;3.50;;;6.10;99.90;;;;;;8259846;28;20148;-72
2020/12/23 09:21:40;;;;;;;11.93;4.40;;;6.20;99.90;;;;;;8229564;28;20399;-72
2020/12/23 09:25:42;;;;;;;13.47;3.87;;;5.70;99.90;;;;;;8224717;28;20062;-72
2020/12/23 09:29:43;;;;;;;5.68;3.13;;;5.70;99.90;;;;;;8213749;28;20061;-72
2020/12/23 09:33:45;;;;;;;11.67;5.20;;;5.80;99.90;;;;;;8244954;28;20092;-72
2020/12/23 09:37:47;;;;;;;13.77;4.33;;;5.60;99.90;;;;;;8218287;28;20461;-71
2020/12/23 09:42:03;;;;;;;8.45;3.83;;;5.70;99.90;;;;;;8234278;28;20075;-71
2020/12/23 09:46:08;;;;;;;9.95;3.95;;;5.40;99.90;;;;;;8232632;28;20058;-71
2020/12/23 09:50:10;;;;;;;8.32;3.70;;;5.80;99.90;;;;;;8247032;28;20046;-71
2020/12/23 09:54:11;;;;;;;10.60;4.50;;;5.80;99.90;;;;;;8238633;28;20056;-72
2020/12/23 09:58:14;;;;;;;6.97;3.47;;;5.50;99.90;;;;;;8236754;28;20301;-71
2020/12/23 10:02:15;;;;;;;6.50;3.92;;;5.40;99.90;;;;;;8217326;28;20480;-70
2020/12/23 10:06:17;;;;;;;10.47;4.30;;;5.60;99.90;;;;;;8252878;28;20598;-71
2020/12/23 10:10:18;;;;;;;7.13;4.23;;;5.80;99.90;;;;;;8226487;28;20120;-71
2020/12/23 10:14:20;;;;;;;6.85;4.20;;;5.60;99.90;;;;;;8249395;28;20058;-71
2020/12/23 10:18:24;;;;;;;8.07;4.57;;;5.80;99.90;;;;;;8246539;28;20053;-71
2020/12/23 10:22:26;;;;;;;9.87;4.67;;;5.80;99.90;;;;;;8228708;28;20058;-71
2020/12/23 10:26:27;;;;;;;10.57;5.60;;;5.80;99.90;;;;;;8237020;28;20050;-72
2020/12/23 10:30:32;;;;;;;8.80;5.07;;;5.80;99.90;;;;;;8240301;28;20066;-72
2020/12/23 10:34:44;;;;;;;12.30;5.97;;;5.70;99.90;;;;;;8231669;28;20054;-72
2020/12/23 10:38:47;;;;;;;9.98;5.50;;;5.80;99.90;;;;;;8229160;28;20054;-72
2020/12/23 10:42:49;;;;;;;12.68;6.30;;;5.50;99.90;;;;;;8233990;28;20058;-72
2020/12/23 10:46:55;;;;;;;13.00;7.00;;;5.70;99.90;;;;;;8262286;28;20064;-72
2020/12/23 10:50:58;;;;;;;14.85;7.50;;;5.50;99.90;;;;;;8217363;28;20120;-72
2020/12/23 10:54:59;;;;;;;19.85;8.43;;;5.80;99.90;;;;;;8233839;28;28165;-72
2020/12/23 10:59:00;;;;;;;14.43;8.93;;;5.90;99.90;;;;;;8236851;28;20093;-72
2020/12/23 11:03:02;;;;;;;14.53;8.77;;;6.30;99.90;;;;;;8217431;28;20065;-72
2020/12/23 11:07:04;;;;;;;12.75;7.45;;;5.90;99.90;;;;;;8242198;28;20050;-72
2020/12/23 11:11:06;;;;;;;14.50;7.22;;;5.60;99.90;;;;;;8216545;28;20066;-72
2020/12/23 11:15:08;;;;;;;15.93;7.63;;;5.90;99.90;;;;;;8214103;28;20042;-72
2020/12/23 11:19:09;;;;;;;11.20;7.13;;;6.00;99.90;;;;;;8235682;28;20121;-72
2020/12/23 11:23:26;;;;;;;16.48;8.25;;;6.20;99.90;;;;;;8229247;28;20674;-72
2020/12/23 11:27:27;;;;;;;20.88;8.15;;;5.70;99.90;;;;;;8212960;28;20082;-72
2020/12/23 11:31:29;;;;;;;14.70;8.40;;;6.00;99.90;;;;;;8230972;28;20062;-72
2020/12/23 11:35:30;;;;;;;18.10;8.43;;;6.20;99.90;;;;;;8217129;28;20073;-72
2020/12/23 11:39:32;;;;;;;17.27;9.43;;;6.20;99.90;;;;;;8251808;28;20484;-72
2020/12/23 11:43:33;;;;;;;19.13;9.57;;;6.80;99.90;;;;;;8243093;28;20061;-72
2020/12/23 11:47:35;;;;;;;19.27;8.80;;;6.10;99.90;;;;;;8232312;28;20059;-72
2020/12/23 11:51:37;;;;;;;15.98;9.32;;;6.00;99.90;;;;;;8221660;28;20050;-72
2020/12/23 11:55:38;;;;;;;14.97;8.70;;;6.20;99.90;;;;;;8238666;28;20050;-72
2020/12/23 11:59:39;;;;;;;17.55;9.57;;;6.20;99.90;;;;;;8241700;28;20060;-72
2020/12/23 12:03:41;;;;;;;19.47;10.27;;;6.60;99.90;;;;;;8234260;28;20058;-72
2020/12/23 12:07:43;;;;;;;;;;;6.40;99.90;;;;;;8214926;28;20046;-72
2020/12/23 12:11:44;;;;;;;19.90;9.98;;;6.10;99.90;;;;;;8234024;28;20041;-72
2020/12/23 12:15:46;;;;;;;18.23;10.73;;;6.10;99.90;;;;;;8215941;28;20292;-72
2020/12/23 12:19:49;;;;;;;19.38;9.73;;;6.40;99.90;;;;;;8229185;28;20050;-72
2020/12/23 12:23:50;;;;;;;20.00;9.32;;;6.20;99.90;;;;;;8192814;28;20068;-72
2020/12/23 12:27:54;;;;;;;18.60;9.65;;;6.30;99.90;;;;;;8225594;28;20046;-72
2020/12/23 12:31:55;;;;;;;16.97;9.27;;;6.10;99.90;;;;;;8213893;28;20058;-72
2020/12/23 12:35:57;;;;;;;21.30;10.40;;;6.30;99.90;;;;;;8254305;28;20144;-72
2020/12/23 12:39:59;;;;;;;15.88;9.75;;;6.20;99.90;;;;;;8235892;28;20504;-72
2020/12/23 12:44:00;;;;;;;19.80;9.00;;;6.10;99.90;;;;;;8244566;28;20113;-72
2020/12/23 12:48:05;;;;;;;18.60;8.45;;;6.30;99.90;;;;;;8226725;28;20113;-72
2020/12/23 12:52:06;;;;;;;14.97;9.37;;;6.20;99.90;;;;;;8232717;28;20042;-73
2020/12/23 12:56:09;;;;;;;15.55;8.27;;;6.60;99.90;;;;;;8240961;28;20077;-72
2020/12/23 13:00:11;;;;;;;14.70;8.68;;;6.20;99.90;;;;;;8198914;28;20424;-72
2020/12/23 13:04:12;;;;;;;;;;;6.00;99.90;;;;;;8235827;28;20128;-72
2020/12/23 13:08:13;;;;;;;19.70;8.85;;;6.10;99.90;;;;;;8229693;28;19921;-72
2020/12/23 13:12:15;;;;;;;15.87;8.63;;;6.10;99.90;;;;;;8258487;28;20085;-72
2020/12/23 13:16:17;;;;;;;19.13;9.20;;;6.40;99.90;;;;;;8234708;28;20106;-72
2020/12/23 13:20:18;;;;;;;17.63;8.20;;;6.20;99.90;;;;;;8251190;28;20062;-71
2020/12/23 13:24:20;;;;;;;18.03;9.00;;;6.40;99.90;;;;;;8230732;28;21678;-72
2020/12/23 13:28:26;;;;;;;17.20;8.93;;;6.40;99.90;;;;;;8241050;28;20062;-72
2020/12/23 13:32:28;;;;;;;21.40;9.57;;;6.30;99.90;;;;;;8233511;28;20073;-72
2020/12/23 13:36:29;;;;;;;22.00;10.73;;;6.30;99.90;;;;;;8232117;28;20050;-72
2020/12/23 13:40:31;;;;;;;19.92;10.63;;;6.70;99.90;;;;;;8218075;28;20055;-72
2020/12/23 13:44:32;;;;;;;21.53;10.43;;;6.40;99.90;;;;;;8213121;28;20054;-73
2020/12/23 13:48:34;;;;;;;19.17;11.37;;;6.50;99.90;;;;;;8243844;28;20105;-72
2020/12/23 13:52:35;;;;;;;18.27;10.43;;;6.50;99.90;;;;;;8231761;28;20043;-72
2020/12/23 13:56:37;;;;;;;19.17;10.53;;;6.50;99.90;;;;;;8229956;28;20581;-73
2020/12/23 14:00:38;;;;;;;21.83;12.03;;;6.40;99.90;;;;;;8220908;28;20050;-71
2020/12/23 14:04:40;;;;;;;27.50;12.70;;;6.30;99.90;;;;;;8244664;28;20113;-71
2020/12/23 14:08:42;;;;;;;26.77;12.50;;;6.30;99.90;;;;;;8211527;28;20600;-71
2020/12/23 14:12:43;;;;;;;24.63;12.70;;;6.40;99.90;;;;;;8217718;28;20435;-71
2020/12/23 14:16:45;;;;;;;23.38;11.45;;;6.30;99.90;;;;;;8218449;28;20062;-71
2020/12/23 14:20:49;;;;;;;21.33;11.50;;;6.30;99.90;;;;;;8212835;28;20061;-71
2020/12/23 14:24:51;;;;;;;23.65;11.10;;;6.00;99.90;;;;;;8220818;28;20533;-71
2020/12/23 14:28:55;;;;;;;24.50;10.93;;;5.90;99.90;;;;;;8228056;28;20054;-71
2020/12/23 14:32:56;;;;;;;20.85;10.75;;;6.40;99.90;;;;;;8231669;28;20561;-71
2020/12/23 14:36:58;;;;;;;19.97;12.20;;;6.20;99.90;;;;;;8215962;28;20651;-71
2020/12/23 14:41:01;;;;;;;24.23;14.70;;;6.10;99.90;;;;;;8237600;28;20054;-71
2020/12/23 14:45:04;;;;;;;31.02;16.00;;;6.50;99.90;;;;;;8225685;28;20065;-71
2020/12/23 14:49:06;;;;;;;25.27;13.32;;;6.10;99.90;;;;;;8197128;28;20089;-71
2020/12/23 14:53:07;;;;;;;25.50;12.53;;;6.10;99.90;;;;;;8217988;28;20054;-71
2020/12/23 14:57:09;;;;;;;35.47;25.73;;;5.90;99.90;;;;;;8216417;28;20342;-71
2020/12/23 15:01:10;;;;;;;23.07;13.10;;;6.70;99.90;;;;;;8224742;28;20057;-72
2020/12/23 15:05:12;;;;;;;20.37;11.10;;;6.00;99.90;;;;;;8249436;28;20599;-71
2020/12/23 15:09:13;;;;;;;19.03;11.40;;;6.20;99.90;;;;;;8216553;28;20066;-71
2020/12/23 15:13:15;;;;;;;20.23;11.63;;;6.00;99.90;;;;;;8227425;28;20052;-71
2020/12/23 15:17:16;;;;;;;21.27;11.67;;;6.20;99.90;;;;;;8242475;28;20108;-71
2020/12/23 15:21:18;;;;;;;19.63;10.85;;;6.20;99.90;;;;;;8235339;28;20651;-71
2020/12/23 15:25:19;;;;;;;22.63;12.20;;;6.00;99.90;;;;;;8236268;28;20276;-71
2020/12/23 15:29:21;;;;;;;25.33;10.35;;;6.20;99.90;;;;;;8238114;28;20431;-71
2020/12/23 15:33:22;;;;;;;18.23;11.40;;;6.20;99.90;;;;;;8238302;28;20606;-71
2020/12/23 15:37:24;;;;;;;17.45;11.25;;;5.70;99.90;;;;;;8257989;28;20151;-71
2020/12/23 15:41:25;;;;;;;18.53;10.43;;;6.30;99.90;;;;;;8227233;28;20066;-71
2020/12/23 15:45:27;;;;;;;18.70;11.00;;;5.90;99.90;;;;;;8233631;28;20318;-71
2020/12/23 15:49:28;;;;;;;28.48;13.15;;;6.00;99.90;;;;;;8231013;28;20050;-71
2020/12/23 15:53:29;;;;;;;40.90;16.30;;;5.90;99.90;;;;;;8239630;28;20055;-71
2020/12/23 15:57:31;;;;;;;48.83;17.57;;;5.80;99.90;;;;;;8231954;28;20683;-71
2020/12/23 16:01:33;;;;;;;29.33;15.68;;;5.80;99.90;;;;;;8215316;28;20588;-71
2020/12/23 16:05:34;;;;;;;23.35;10.38;;;5.90;99.90;;;;;;8230670;28;20049;-71
2020/12/23 16:09:36;;;;;;;20.87;10.53;;;5.90;99.90;;;;;;8239070;28;20078;-71
2020/12/23 16:13:38;;;;;;;28.40;12.35;;;6.20;99.90;;;;;;8228764;28;20062;-71
2020/12/23 16:17:42;;;;;;;24.65;10.88;;;5.90;99.90;;;;;;8215190;28;20069;-71
2020/12/23 16:21:44;;;;;;;37.35;15.70;;;5.70;99.90;;;;;;8234454;28;20120;-71
2020/12/23 16:25:45;;;;;;;27.97;13.30;;;6.30;99.90;;;;;;8230217;28;20054;-71
2020/12/23 16:29:47;;;;;;;31.43;13.07;;;6.00;99.90;;;;;;8226229;28;20057;-71
2020/12/23 16:33:48;;;;;;;23.85;13.30;;;5.90;99.90;;;;;;8235909;28;20054;-71
2020/12/23 16:37:50;;;;;;;36.80;21.10;;;5.90;99.90;;;;;;8233928;28;20061;-71
2020/12/23 16:41:57;;;;;;;22.25;12.70;;;6.10;99.90;;;;;;8214432;28;21126;-71
2020/12/23 16:46:06;;;;;;;26.27;13.65;;;6.40;99.90;;;;;;8224710;28;20061;-71
2020/12/23 16:50:08;;;;;;;42.22;17.98;;;5.60;99.90;;;;;;8220446;28;20066;-72
2020/12/23 16:54:11;;;;;;;36.40;16.73;;;6.20;99.90;;;;;;8232178;28;20392;-71
2020/12/23 16:58:12;;;;;;;24.73;12.65;;;5.90;99.90;;;;;;8232710;28;20554;-71
2020/12/23 17:02:13;;;;;;;21.83;10.60;;;5.90;99.90;;;;;;8217298;28;20311;-71
2020/12/23 17:06:15;;;;;;;22.27;11.57;;;6.20;99.90;;;;;;8222895;28;20098;-71
2020/12/23 17:10:16;;;;;;;27.07;12.07;;;5.90;99.90;;;;;;8218842;28;20384;-72
2020/12/23 17:14:18;;;;;;;23.45;10.10;;;6.00;99.90;;;;;;8232405;28;20530;-72
2020/12/23 17:18:19;;;;;;;21.93;10.80;;;6.10;99.90;;;;;;8233634;28;20042;-72
2020/12/23 17:22:21;;;;;;;27.27;11.80;;;5.70;99.90;;;;;;8209439;28;20050;-72
2020/12/23 17:26:23;;;;;;;31.17;15.33;;;5.80;99.90;;;;;;8229821;28;20082;-72
2020/12/23 17:30:25;;;;;;;47.08;24.58;;;6.30;99.90;;;;;;8232134;28;20408;-72
2020/12/23 17:34:29;;;;;;;25.88;13.23;;;6.00;99.90;;;;;;8240441;28;20692;-72
2020/12/23 17:38:31;;;;;;;22.17;13.50;;;6.00;99.90;;;;;;8220923;28;20561;-72
2020/12/23 17:42:44;;;;;;;20.58;10.63;;;6.10;99.90;;;;;;8244150;28;20057;-72
2020/12/23 17:46:51;;;;;;;27.75;16.67;;;5.90;99.90;;;;;;8225527;28;20112;-72
2020/12/23 17:50:55;;;;;;;32.33;16.25;;;5.60;99.90;;;;;;8234933;28;20046;-73
2020/12/23 17:54:56;;;;;;;29.63;15.48;;;5.90;99.90;;;;;;8221380;28;20142;-72
2020/12/23 17:58:58;;;;;;;25.07;11.17;;;5.80;99.90;;;;;;8245225;28;20096;-72
2020/12/23 18:02:59;;;;;;;16.92;10.60;;;6.00;99.90;;;;;;8233982;28;20423;-72
2020/12/23 18:07:01;;;;;;;29.10;13.40;;;5.70;99.90;;;;;;8221641;28;20058;-74
2020/12/23 18:11:04;;;;;;;21.43;11.70;;;5.60;99.90;;;;;;8238761;28;20038;-75
2020/12/23 18:15:06;;;;;;;21.85;12.48;;;5.60;99.90;;;;;;8244128;28;20050;-74
2020/12/23 18:19:08;;;;;;;32.35;17.92;;;5.80;99.90;;;;;;8239458;28;20054;-73
2020/12/23 18:23:09;;;;;;;29.23;15.20;;;5.60;99.90;;;;;;8217795;28;20061;-74
2020/12/23 18:27:11;;;;;;;29.00;14.37;;;6.00;99.90;;;;;;8218620;28;20054;-75
2020/12/23 18:31:13;;;;;;;27.60;12.80;;;5.80;99.90;;;;;;8252327;28;20122;-72
2020/12/23 18:35:15;;;;;;;24.80;11.77;;;5.50;99.90;;;;;;8243709;28;20050;-72
2020/12/23 18:39:16;;;;;;;22.97;11.83;;;6.10;99.90;;;;;;8233384;28;20077;-73
2020/12/23 18:43:18;;;;;;;22.83;10.57;;;5.90;99.90;;;;;;8220829;28;20590;-73
2020/12/23 18:47:22;;;;;;;22.40;10.52;;;5.70;99.90;;;;;;8233849;28;20498;-72
2020/12/23 18:51:24;;;;;;;27.95;13.93;;;6.00;99.90;;;;;;8219055;28;20062;-72
2020/12/23 18:55:26;;;;;;;34.03;17.85;;;5.90;99.90;;;;;;8228573;28;20467;-72
2020/12/23 18:59:28;;;;;;;43.00;20.45;;;5.90;99.90;;;;;;8230448;28;20511;-72
2020/12/23 19:03:29;;;;;;;30.07;15.93;;;5.60;99.90;;;;;;8218494;28;20058;-72
2020/12/23 19:07:34;;;;;;;37.03;17.23;;;5.70;99.90;;;;;;8205177;28;20085;-72
2020/12/23 19:11:36;;;;;;;27.38;15.13;;;5.60;99.90;;;;;;8239231;28;20445;-73
2020/12/23 19:15:37;;;;;;;26.95;14.82;;;5.80;99.90;;;;;;8234121;28;20070;-72
2020/12/23 19:19:39;;;;;;;25.00;15.03;;;5.80;99.90;;;;;;8219460;28;20058;-72
2020/12/23 19:23:40;;;;;;;25.08;12.48;;;6.70;99.90;;;;;;8247424;28;20133;-72
2020/12/23 19:27:50;;;;;;;18.50;8.75;;;6.30;99.90;;;;;;8236190;28;20629;-72
2020/12/23 19:31:52;;;;;;;19.80;9.13;;;5.80;99.90;;;;;;8243324;28;20054;-74
2020/12/23 19:35:55;;;;;;;27.75;9.57;;;5.40;99.90;;;;;;8217549;28;20100;-75
2020/12/23 19:39:56;;;;;;;22.35;8.00;;;5.60;99.90;;;;;;8231046;28;20533;-74
2020/12/23 19:43:58;;;;;;;18.73;9.13;;;5.60;99.90;;;;;;8233645;28;20062;-74
2020/12/23 19:48:07;;;;;;;21.17;9.47;;;6.50;99.90;;;;;;8255019;28;20771;-76
2020/12/23 19:52:08;;;;;;;23.65;9.55;;;6.10;99.90;;;;;;8219111;28;20610;-73
2020/12/23 19:56:14;;;;;;;16.55;9.18;;;5.60;99.90;;;;;;8234035;28;20069;-72
2020/12/23 20:00:16;;;;;;;21.70;8.98;;;5.70;99.90;;;;;;8231306;28;20120;-72
2020/12/23 20:04:17;;;;;;;20.47;12.47;;;5.70;99.90;;;;;;8210656;28;20419;-72
2020/12/23 20:08:19;;;;;;;19.40;9.37;;;5.70;99.90;;;;;;8225258;28;20062;-72
2020/12/23 20:12:22;;;;;;;20.35;8.73;;;5.70;99.90;;;;;;8247049;28;20460;-72
2020/12/23 20:16:26;;;;;;;22.42;8.65;;;5.90;99.90;;;;;;8230315;28;20073;-72
2020/12/23 20:20:27;;;;;;;18.77;8.48;;;5.60;99.90;;;;;;8234006;28;20090;-73
2020/12/23 20:24:29;;;;;;;22.63;10.33;;;5.70;99.90;;;;;;8245004;28;20059;-73
2020/12/23 20:28:30;;;;;;;17.03;9.80;;;5.20;99.90;;;;;;8216501;28;20062;-72
2020/12/23 20:32:32;;;;;;;19.80;8.67;;;5.80;99.90;;;;;;8215436;28;20526;-73
2020/12/23 20:36:40;;;;;;;19.98;9.82;;;5.60;99.90;;;;;;8214439;28;20116;-72
2020/12/23 20:40:42;;;;;;;22.35;10.77;;;5.00;99.90;;;;;;8235208;28;20458;-72
2020/12/23 20:44:43;;;;;;;25.67;12.05;;;5.70;99.90;;;;;;8230856;28;20065;-72
2020/12/23 20:48:45;;;;;;;21.67;10.82;;;5.70;99.90;;;;;;8233982;28;20054;-72
2020/12/23 20:52:47;;;;;;;17.90;8.48;;;5.40;99.90;;;;;;8217334;28;20059;-72
2020/12/23 20:56:49;;;;;;;17.27;8.30;;;5.40;99.90;;;;;;8219701;28;20051;-72
2020/12/23 21:00:50;;;;;;;20.02;8.93;;;5.90;99.90;;;;;;8245861;28;20113;-72
2020/12/23 21:04:52;;;;;;;23.77;9.77;;;5.30;99.90;;;;;;8210740;28;20547;-73